Time;durP1;ratioP1;P1;durP2;ratioP2;P2;SDS_P1;SDS_P2;PMS_P1;PMS_P2;Temp;Humidity;BMP_temperature;BMP_pressure;BME280_temperature;BME280_humidity;BME280_pressure;Samples;Min_cycle;Max_cycle;Signal;HPM_P1;HPM_P2
2021/01/03 00:00:26;;;;;;;8.85;7.60;;;3.40;99.90;;;;;;4971351;28;20408;-79
2021/01/03 00:02:52;;;;;;;9.32;8.07;;;3.40;99.90;;;;;;4962216;28;20882;-79
2021/01/03 00:05:24;;;;;;;10.57;8.90;;;3.40;99.90;;;;;;4960975;28;20457;-79
2021/01/03 00:07:50;;;;;;;12.55;10.07;;;3.40;99.90;;;;;;4958379;28;20477;-79
2021/01/03 00:10:17;;;;;;;12.27;9.73;;;3.50;99.90;;;;;;4968040;28;20890;-79
2021/01/03 00:12:43;;;;;;;13.15;10.45;;;3.50;99.90;;;;;;4964564;28;20406;-79
2021/01/03 00:15:13;;;;;;;13.87;11.00;;;3.60;99.90;;;;;;4968683;28;20414;-79
2021/01/03 00:17:40;;;;;;;15.15;11.93;;;3.60;99.90;;;;;;4968465;28;20467;-79
2021/01/03 00:20:11;;;;;;;13.15;11.65;;;3.50;99.90;;;;;;4963273;28;20980;-79
2021/01/03 00:22:37;;;;;;;12.60;11.00;;;3.40;99.90;;;;;;4956683;28;20599;-79
2021/01/03 00:25:04;;;;;;;15.82;12.98;;;3.50;99.90;;;;;;4963775;28;20412;-79
2021/01/03 00:27:30;;;;;;;14.80;12.00;;;3.50;99.90;;;;;;4958892;28;20416;-79
2021/01/03 00:29:56;;;;;;;14.75;12.15;;;3.50;99.90;;;;;;4968705;28;20429;-79
2021/01/03 00:32:22;;;;;;;15.07;12.95;;;3.40;99.90;;;;;;4969301;28;20410;-78
2021/01/03 00:34:49;;;;;;;14.40;10.95;;;3.20;99.90;;;;;;4956201;28;20421;-79
2021/01/03 00:37:15;;;;;;;14.73;12.05;;;3.50;99.90;;;;;;4959189;28;20407;-78
2021/01/03 00:39:41;;;;;;;14.80;12.20;;;3.50;99.90;;;;;;4958533;28;20388;-78
2021/01/03 00:42:07;;;;;;;15.48;12.95;;;3.50;99.90;;;;;;4961170;28;20972;-79
2021/01/03 00:44:33;;;;;;;15.93;13.18;;;3.40;99.90;;;;;;4959957;28;20735;-79
2021/01/03 00:46:59;;;;;;;15.65;12.82;;;3.30;99.90;;;;;;4970307;28;20408;-79
2021/01/03 00:49:25;;;;;;;15.70;12.60;;;3.40;99.90;;;;;;4968491;28;20899;-78
2021/01/03 00:51:52;;;;;;;14.77;12.33;;;3.30;99.90;;;;;;4958705;28;20479;-79
2021/01/03 00:54:18;;;;;;;13.77;11.93;;;3.30;99.90;;;;;;4970138;28;20480;-78
2021/01/03 00:56:44;;;;;;;14.23;12.25;;;3.40;99.90;;;;;;4972362;28;20913;-79
2021/01/03 00:59:10;;;;;;;14.05;11.30;;;3.30;99.90;;;;;;4958860;28;20411;-79
2021/01/03 01:01:36;;;;;;;13.90;11.63;;;3.20;99.90;;;;;;4960382;28;20402;-78
2021/01/03 01:04:02;;;;;;;14.43;11.63;;;3.30;99.90;;;;;;4963364;28;20501;-78
2021/01/03 01:06:28;;;;;;;15.20;11.63;;;3.30;99.90;;;;;;4977843;28;20410;-79
2021/01/03 01:08:54;;;;;;;14.25;11.60;;;3.30;99.90;;;;;;4961743;28;20905;-79
2021/01/03 01:11:23;;;;;;;13.52;11.13;;;3.30;99.90;;;;;;4967134;28;20496;-78
2021/01/03 01:13:48;;;;;;;15.27;11.32;;;3.30;99.90;;;;;;4965576;28;20407;-79
2021/01/03 01:16:14;;;;;;;12.57;10.98;;;3.30;99.90;;;;;;4958933;28;20464;-80
2021/01/03 01:18:40;;;;;;;13.50;11.90;;;3.40;99.90;;;;;;4961514;28;20408;-78
2021/01/03 01:21:07;;;;;;;14.97;12.83;;;3.30;99.90;;;;;;4957183;28;20910;-79
2021/01/03 01:23:33;;;;;;;14.05;11.00;;;3.30;99.90;;;;;;4963280;28;20429;-79
2021/01/03 01:26:00;;;;;;;13.48;11.55;;;3.30;99.90;;;;;;4956432;28;20416;-79
2021/01/03 01:28:26;;;;;;;12.23;10.90;;;3.30;99.90;;;;;;4962081;28;20508;-79
2021/01/03 01:30:52;;;;;;;12.57;10.35;;;3.40;99.90;;;;;;5001040;28;20405;-79
2021/01/03 01:33:19;;;;;;;11.80;10.50;;;3.50;99.90;;;;;;4967649;28;20518;-79
2021/01/03 01:35:44;;;;;;;12.50;10.65;;;3.40;99.90;;;;;;4984879;28;20408;-79
2021/01/03 01:38:10;;;;;;;13.98;11.35;;;3.50;99.90;;;;;;4969292;28;20403;-79
2021/01/03 01:40:39;;;;;;;13.27;11.15;;;3.50;99.90;;;;;;4972392;28;20396;-79
2021/01/03 01:43:08;;;;;;;13.68;10.73;;;3.40;99.90;;;;;;4964230;28;20480;-79
2021/01/03 01:45:36;;;;;;;14.25;10.88;;;3.50;99.90;;;;;;4957379;28;20410;-79
2021/01/03 01:48:06;;;;;;;13.20;11.00;;;3.50;99.90;;;;;;4962788;28;20485;-79
2021/01/03 01:50:39;;;;;;;13.80;11.30;;;3.50;99.90;;;;;;4959186;28;20424;-79
2021/01/03 01:53:08;;;;;;;13.93;10.93;;;3.50;99.90;;;;;;4966363;28;20437;-79
2021/01/03 01:55:40;;;;;;;15.85;11.95;;;3.50;99.90;;;;;;4967246;28;20898;-79
2021/01/03 01:58:17;;;;;;;15.35;11.65;;;3.40;99.90;;;;;;4965825;28;20836;-79
2021/01/03 02:00:47;;;;;;;15.82;12.43;;;3.30;99.90;;;;;;4977031;28;20421;-78
2021/01/03 02:03:18;;;;;;;14.07;12.47;;;3.40;99.90;;;;;;4981323;23;20879;-71
2021/01/03 02:05:49;;;;;;;16.20;12.88;;;3.40;99.90;;;;;;4973647;28;20408;-71
2021/01/03 02:08:25;;;;;;;16.07;12.70;;;3.50;99.90;;;;;;4974906;28;20472;-71
2021/01/03 02:10:51;;;;;;;16.95;13.05;;;3.50;99.90;;;;;;4974988;28;20403;-71
2021/01/03 02:13:25;;;;;;;15.87;12.87;;;3.50;99.90;;;;;;4975113;28;20760;-71
2021/01/03 02:15:54;;;;;;;14.80;12.63;;;3.40;99.90;;;;;;4975086;28;20490;-71
2021/01/03 02:18:20;;;;;;;14.15;11.90;;;3.40;99.90;;;;;;4975210;28;20435;-71
2021/01/03 02:21:06;;;;;;;14.57;12.07;;;3.30;99.90;;;;;;4973553;28;20455;-72
2021/01/03 02:23:38;;;;;;;15.77;12.75;;;3.30;99.90;;;;;;4977622;28;20421;-72
2021/01/03 02:26:06;;;;;;;13.53;11.77;;;3.40;99.90;;;;;;4975840;28;20440;-71
2021/01/03 02:28:38;;;;;;;13.70;10.73;;;3.50;99.90;;;;;;4974880;28;20515;-71
2021/01/03 02:31:05;;;;;;;13.88;11.10;;;3.60;99.90;;;;;;4972350;28;20966;-71
2021/01/03 02:33:35;;;;;;;13.30;11.43;;;3.50;99.90;;;;;;4970092;28;20807;-71
2021/01/03 02:36:06;;;;;;;13.13;10.77;;;3.40;99.90;;;;;;4972984;28;20527;-71
2021/01/03 02:38:35;;;;;;;11.60;9.68;;;3.50;99.90;;;;;;4974395;28;20392;-71
2021/01/03 02:41:01;;;;;;;11.93;10.13;;;3.70;99.90;;;;;;4974663;28;20406;-71
2021/01/03 02:43:28;;;;;;;11.25;9.73;;;3.70;99.90;;;;;;4981001;28;20495;-71
2021/01/03 02:45:54;;;;;;;12.48;10.85;;;3.60;99.90;;;;;;4979746;28;20400;-71
2021/01/03 02:48:23;;;;;;;12.60;10.43;;;3.70;99.90;;;;;;4974159;28;20431;-71
2021/01/03 02:50:50;;;;;;;13.43;11.13;;;3.70;99.90;;;;;;4973497;28;20388;-71
2021/01/03 02:53:16;;;;;;;11.83;10.20;;;3.70;99.90;;;;;;4972376;28;20484;-71
2021/01/03 02:55:42;;;;;;;12.10;9.95;;;3.60;99.90;;;;;;4972992;28;20422;-72
2021/01/03 02:58:08;;;;;;;12.20;10.07;;;3.60;99.90;;;;;;4972121;28;20491;-71
2021/01/03 03:00:37;;;;;;;12.90;11.03;;;3.60;99.90;;;;;;4977680;28;20396;-71
2021/01/03 03:03:03;;;;;;;13.95;11.93;;;3.40;99.90;;;;;;4974478;28;20416;-71
2021/01/03 03:05:29;;;;;;;13.40;11.40;;;3.30;99.90;;;;;;4970662;28;20499;-72
2021/01/03 03:07:55;;;;;;;12.85;11.02;;;3.20;99.90;;;;;;4970057;28;20990;-72
2021/01/03 03:10:22;;;;;;;13.52;10.93;;;3.30;99.90;;;;;;4972515;28;20942;-71
2021/01/03 03:12:48;;;;;;;12.45;10.60;;;3.30;99.90;;;;;;4972866;28;20499;-71
2021/01/03 03:15:15;;;;;;;12.00;10.15;;;3.40;99.90;;;;;;4974012;28;20402;-72
2021/01/03 03:17:42;;;;;;;11.80;9.98;;;3.40;99.90;;;;;;4971657;28;20908;-72
2021/01/03 03:20:12;;;;;;;12.23;10.45;;;3.40;99.90;;;;;;4984030;28;20402;-72
2021/01/03 03:22:38;;;;;;;13.23;10.80;;;3.40;99.90;;;;;;4978545;28;20528;-72
2021/01/03 03:25:06;;;;;;;12.20;10.40;;;3.60;99.90;;;;;;4972244;28;20397;-72
2021/01/03 03:27:36;;;;;;;12.98;10.65;;;3.60;99.90;;;;;;4973391;28;20439;-72
2021/01/03 03:30:03;;;;;;;12.63;10.57;;;3.70;99.90;;;;;;4971947;28;20457;-72
2021/01/03 03:32:29;;;;;;;12.50;10.73;;;3.80;99.90;;;;;;4971971;28;20458;-71
2021/01/03 03:34:56;;;;;;;13.57;11.27;;;3.80;99.90;;;;;;4973579;28;20392;-71
2021/01/03 03:37:21;;;;;;;13.95;11.88;;;3.80;99.90;;;;;;4973165;28;20396;-71
2021/01/03 03:39:47;;;;;;;15.10;12.63;;;4.00;99.90;;;;;;4964210;28;20739;-71
2021/01/03 03:42:13;;;;;;;14.45;11.73;;;3.70;99.90;;;;;;4973814;28;20496;-71
2021/01/03 03:44:39;;;;;;;14.00;11.85;;;3.80;99.90;;;;;;4969764;28;20744;-72
2021/01/03 03:47:05;;;;;;;13.82;12.20;;;4.00;99.90;;;;;;4970568;28;20400;-71
2021/01/03 03:49:33;;;;;;;14.30;12.10;;;3.70;99.90;;;;;;4974819;28;20423;-71
2021/01/03 03:52:01;;;;;;;13.70;11.20;;;3.70;99.90;;;;;;4976807;28;20451;-71
2021/01/03 03:54:28;;;;;;;15.10;12.30;;;3.80;99.90;;;;;;4971586;28;20503;-71
2021/01/03 03:56:55;;;;;;;14.70;12.15;;;3.80;99.90;;;;;;4965940;28;20413;-71
2021/01/03 03:59:22;;;;;;;15.50;12.20;;;3.70;99.90;;;;;;4966860;28;20491;-72
2021/01/03 04:01:49;;;;;;;14.45;12.27;;;3.80;99.90;;;;;;4967485;28;20409;-71
2021/01/03 04:04:15;;;;;;;17.33;13.32;;;3.70;99.90;;;;;;4973527;28;20402;-71
2021/01/03 04:06:41;;;;;;;14.15;11.98;;;3.60;99.90;;;;;;4965806;28;20394;-71
2021/01/03 04:09:08;;;;;;;15.82;12.85;;;3.60;99.90;;;;;;4977562;28;20423;-71
2021/01/03 04:11:38;;;;;;;15.88;13.10;;;3.50;99.90;;;;;;4973259;28;20733;-71
2021/01/03 04:14:04;;;;;;;14.52;11.85;;;3.40;99.90;;;;;;4970849;28;20427;-72
2021/01/03 04:16:30;;;;;;;14.65;12.70;;;3.40;99.90;;;;;;4973389;28;20400;-71
2021/01/03 04:18:56;;;;;;;15.80;13.27;;;3.40;99.90;;;;;;4975881;28;20881;-71
2021/01/03 04:21:22;;;;;;;16.97;13.73;;;3.40;99.90;;;;;;4973938;28;20396;-72
2021/01/03 04:23:48;;;;;;;14.80;12.35;;;3.30;99.90;;;;;;4972938;28;20898;-71
2021/01/03 04:26:20;;;;;;;13.60;11.73;;;3.30;99.90;;;;;;4971844;28;20915;-72
2021/01/03 04:28:46;;;;;;;13.48;11.57;;;3.50;99.90;;;;;;4971824;28;20519;-71
2021/01/03 04:31:17;;;;;;;12.77;11.00;;;3.60;99.90;;;;;;4971554;28;20425;-71
2021/01/03 04:33:43;;;;;;;14.93;11.97;;;3.70;99.90;;;;;;4966827;28;20393;-72
2021/01/03 04:36:12;;;;;;;13.55;12.02;;;3.70;99.90;;;;;;4967814;28;20759;-71
2021/01/03 04:38:38;;;;;;;13.45;11.70;;;3.70;99.90;;;;;;4972131;28;20399;-71
2021/01/03 04:41:04;;;;;;;13.20;11.10;;;3.60;99.90;;;;;;4981112;28;20395;-71
2021/01/03 04:43:30;;;;;;;14.20;12.00;;;3.80;99.90;;;;;;4979158;28;20483;-71
2021/01/03 04:46:01;;;;;;;13.87;11.77;;;3.70;99.90;;;;;;4976372;28;20408;-71
2021/01/03 04:48:30;;;;;;;14.95;12.45;;;3.60;99.90;;;;;;4976274;28;20419;-71
2021/01/03 04:51:15;;;;;;;15.52;13.07;;;3.60;99.90;;;;;;4978121;28;20441;-71
2021/01/03 04:53:50;;;;;;;15.98;13.52;;;3.50;99.90;;;;;;4985603;28;20404;-71
2021/01/03 04:56:32;;;;;;;16.45;14.60;;;3.40;99.90;;;;;;4975362;28;20470;-72
2021/01/03 04:59:07;;;;;;;18.10;15.27;;;3.40;99.90;;;;;;4981133;28;20554;-72
2021/01/03 05:02:04;;;;;;;18.25;15.73;;;3.30;99.90;;;;;;4975043;28;20444;-71
2021/01/03 05:04:47;;;;;;;19.23;17.10;;;3.20;99.90;;;;;;4977219;28;20402;-71
2021/01/03 05:07:17;;;;;;;24.45;21.77;;;3.20;99.90;;;;;;4976195;28;20406;-71
2021/01/03 05:09:46;;;;;;;17.38;14.88;;;3.20;99.90;;;;;;4975989;28;20420;-71
2021/01/03 05:12:21;;;;;;;17.67;15.32;;;3.30;99.90;;;;;;4976082;28;20445;-72
2021/01/03 05:14:54;;;;;;;15.02;13.40;;;3.40;99.90;;;;;;4976479;28;20448;-71
2021/01/03 05:17:20;;;;;;;15.73;13.82;;;3.40;99.90;;;;;;4974044;28;20404;-72
2021/01/03 05:19:46;;;;;;;16.88;14.23;;;3.40;99.90;;;;;;4976309;28;20494;-71
2021/01/03 05:22:24;;;;;;;17.27;14.77;;;3.40;99.90;;;;;;4976084;28;20799;-72
2021/01/03 05:24:50;;;;;;;14.68;12.63;;;3.30;99.90;;;;;;4975073;28;20548;-72
2021/01/03 05:27:19;;;;;;;15.02;13.38;;;3.30;99.90;;;;;;4974775;28;20400;-72
2021/01/03 05:29:46;;;;;;;16.15;13.98;;;3.30;99.90;;;;;;4974867;28;20471;-71
2021/01/03 05:32:25;;;;;;;18.33;14.63;;;3.40;99.90;;;;;;4974848;28;20833;-71
2021/01/03 05:34:51;;;;;;;22.10;18.70;;;3.30;99.90;;;;;;4974698;28;20493;-71
2021/01/03 05:37:20;;;;;;;22.07;17.80;;;3.20;99.90;;;;;;4976143;28;20755;-71
2021/01/03 05:39:47;;;;;;;19.92;16.20;;;3.20;99.90;;;;;;4976057;28;20437;-71
2021/01/03 05:42:27;;;;;;;20.48;16.20;;;3.20;99.90;;;;;;4974753;28;20441;-71
2021/01/03 05:44:59;;;;;;;18.67;16.20;;;3.20;99.90;;;;;;4973276;28;20494;-71
2021/01/03 05:47:35;;;;;;;18.77;15.07;;;3.20;99.90;;;;;;4975538;28;20405;-72
2021/01/03 05:50:26;;;;;;;18.98;15.75;;;3.40;99.90;;;;;;4956676;28;20438;-72
2021/01/03 05:52:55;;;;;;;18.45;15.25;;;3.30;99.90;;;;;;4970430;28;20482;-71
2021/01/03 05:55:23;;;;;;;16.88;14.45;;;3.40;99.90;;;;;;4975748;28;20396;-71
2021/01/03 05:58:01;;;;;;;17.40;15.10;;;3.50;99.90;;;;;;4975329;28;20929;-71
2021/01/03 06:00:28;;;;;;;17.58;14.40;;;3.50;99.90;;;;;;4975706;28;20484;-71
2021/01/03 06:03:10;;;;;;;19.98;16.70;;;3.50;99.90;;;;;;4975107;28;20451;-71
2021/01/03 06:05:43;;;;;;;22.02;18.67;;;3.40;99.90;;;;;;4974168;28;20525;-71
2021/01/03 06:08:14;;;;;;;19.55;16.63;;;3.30;99.90;;;;;;4974208;28;20450;-71
2021/01/03 06:10:41;;;;;;;19.57;16.37;;;3.20;99.90;;;;;;4978790;28;21023;-71
2021/01/03 06:13:09;;;;;;;19.70;15.65;;;3.20;99.90;;;;;;4974213;28;20415;-71
2021/01/03 06:15:39;;;;;;;20.10;16.50;;;3.30;99.90;;;;;;4978039;28;20442;-71
2021/01/03 06:18:13;;;;;;;21.30;16.88;;;3.40;99.90;;;;;;4975382;28;20434;-71
2021/01/03 06:20:39;;;;;;;20.45;16.13;;;3.30;99.90;;;;;;4975046;28;20533;-71
2021/01/03 06:23:10;;;;;;;19.95;16.58;;;3.30;99.90;;;;;;4973325;28;20482;-71
2021/01/03 06:25:43;;;;;;;19.98;16.45;;;3.40;99.90;;;;;;4971885;28;20445;-71
2021/01/03 06:28:15;;;;;;;16.98;14.70;;;3.40;99.90;;;;;;4973276;28;20542;-71
2021/01/03 06:30:45;;;;;;;16.27;13.70;;;3.50;99.90;;;;;;4972883;28;20536;-71
2021/01/03 06:33:43;;;;;;;20.50;15.20;;;3.50;99.90;;;;;;4974221;28;20392;-71
2021/01/03 06:36:16;;;;;;;20.27;16.85;;;3.40;99.90;;;;;;4957779;28;20404;-71
2021/01/03 06:39:08;;;;;;;18.90;15.45;;;3.30;99.90;;;;;;4967485;28;20392;-72
2021/01/03 06:41:52;;;;;;;22.63;18.27;;;3.30;99.90;;;;;;4972224;28;20818;-72
2021/01/03 06:44:58;;;;;;;22.95;18.33;;;3.30;99.90;;;;;;4972833;28;20455;-71
2021/01/03 06:47:47;;;;;;;24.35;20.92;;;3.20;99.90;;;;;;4971647;28;20466;-71
2021/01/03 06:50:40;;;;;;;24.58;20.25;;;3.10;99.90;;;;;;4967156;28;20885;-71
2021/01/03 06:53:34;;;;;;;25.70;20.92;;;3.20;99.90;;;;;;4971431;28;20495;-71
2021/01/03 06:56:57;;;;;;;27.47;23.00;;;3.10;99.90;;;;;;4972611;28;20437;-71
2021/01/03 07:00:01;;;;;;;22.23;18.55;;;3.10;99.90;;;;;;4969445;28;20416;-71
2021/01/03 07:02:31;;;;;;;21.73;18.35;;;3.20;99.90;;;;;;4936746;28;20424;-71
2021/01/03 07:05:05;;;;;;;21.90;18.38;;;3.30;99.90;;;;;;4971194;28;20419;-71
2021/01/03 07:07:32;;;;;;;21.90;18.08;;;3.50;99.90;;;;;;4971395;28;20415;-71
2021/01/03 07:10:01;;;;;;;21.45;17.88;;;3.50;99.90;;;;;;4972349;28;20828;-71
2021/01/03 07:12:39;;;;;;;23.45;17.27;;;3.40;99.90;;;;;;4971416;28;20444;-71
2021/01/03 07:15:13;;;;;;;21.38;17.60;;;3.30;99.90;;;;;;4974242;28;21017;-71
2021/01/03 07:18:02;;;;;;;25.58;20.98;;;3.30;99.90;;;;;;4971190;28;20399;-71
2021/01/03 07:20:33;;;;;;;24.45;19.55;;;3.30;99.90;;;;;;4973976;28;20489;-71
2021/01/03 07:23:09;;;;;;;24.17;20.23;;;3.20;99.90;;;;;;4972931;28;20416;-71
2021/01/03 07:25:45;;;;;;;24.70;20.80;;;3.40;99.90;;;;;;4972742;28;20491;-71
2021/01/03 07:28:17;;;;;;;20.48;17.20;;;3.40;99.90;;;;;;4969786;28;20570;-71
2021/01/03 07:30:52;;;;;;;20.52;17.48;;;3.40;99.90;;;;;;4973409;28;20454;-71
2021/01/03 07:33:40;;;;;;;21.30;17.65;;;3.40;99.90;;;;;;4963290;28;20416;-72
2021/01/03 07:36:35;;;;;;;20.63;17.42;;;3.40;99.90;;;;;;4969285;28;20432;-71
2021/01/03 07:39:23;;;;;;;19.60;16.27;;;3.40;99.90;;;;;;4969334;28;20962;-71
2021/01/03 07:42:18;;;;;;;21.13;18.23;;;3.30;99.90;;;;;;4972331;28;20846;-70
2021/01/03 07:44:44;;;;;;;19.20;16.40;;;3.40;99.90;;;;;;4971137;28;20416;-70
2021/01/03 07:47:31;;;;;;;19.20;16.55;;;3.40;99.90;;;;;;4973702;28;20799;-71
2021/01/03 07:50:26;;;;;;;17.63;15.75;;;3.40;99.90;;;;;;4972341;28;20435;-71
2021/01/03 07:52:54;;;;;;;21.40;17.90;;;3.50;99.90;;;;;;4968096;28;20482;-71
2021/01/03 07:55:32;;;;;;;23.03;19.27;;;3.40;99.90;;;;;;4972544;28;20426;-70
2021/01/03 07:58:04;;;;;;;18.75;15.77;;;3.40;99.90;;;;;;4972571;28;20867;-71
2021/01/03 08:00:32;;;;;;;22.52;18.08;;;3.40;99.90;;;;;;4967075;28;20593;-70
2021/01/03 08:03:02;;;;;;;27.77;21.70;;;3.40;99.90;;;;;;4964167;28;20456;-70
2021/01/03 08:05:30;;;;;;;24.92;20.92;;;3.20;99.90;;;;;;4970125;28;20423;-71
2021/01/03 08:08:12;;;;;;;22.38;18.80;;;3.10;99.90;;;;;;4973611;28;20565;-70
2021/01/03 08:10:40;;;;;;;28.65;23.10;;;3.20;99.90;;;;;;4967804;28;20449;-71
2021/01/03 08:13:10;;;;;;;32.45;25.85;;;3.10;99.90;;;;;;4967127;28;20874;-70
2021/01/03 08:15:37;;;;;;;26.33;22.45;;;3.00;99.90;;;;;;4970747;28;20772;-71
2021/01/03 08:18:06;;;;;;;23.88;20.23;;;3.10;99.90;;;;;;4973251;28;20398;-71
2021/01/03 08:20:33;;;;;;;28.92;22.45;;;3.10;99.90;;;;;;4972768;28;20434;-71
2021/01/03 08:23:10;;;;;;;26.73;21.45;;;3.10;99.90;;;;;;4973147;28;20406;-70
2021/01/03 08:25:36;;;;;;;23.73;19.10;;;3.10;99.90;;;;;;4972886;28;20498;-71
2021/01/03 08:28:08;;;;;;;23.43;18.93;;;3.10;99.90;;;;;;4971856;28;20575;-71
2021/01/03 08:30:36;;;;;;;8.00;6.75;;;3.10;99.90;;;;;;4963960;28;20503;-71
2021/01/03 08:33:09;;;;;;;19.17;16.20;;;3.20;99.90;;;;;;4960595;28;20401;-71
2021/01/03 08:35:35;;;;;;;3.15;2.00;;;3.30;99.90;;;;;;4961844;28;20389;-71
2021/01/03 08:38:01;;;;;;;1.40;1.17;;;3.30;99.90;;;;;;4960729;28;20901;-71
2021/01/03 08:40:30;;;;;;;1.73;1.30;;;3.30;99.90;;;;;;4959736;28;20394;-71
2021/01/03 08:43:03;;;;;;;1.20;0.90;;;3.20;99.90;;;;;;4960005;28;20551;-71
2021/01/03 08:45:32;;;;;;;1.25;0.60;;;3.30;99.90;;;;;;4959885;28;20501;-70
2021/01/03 08:48:04;;;;;;;7.13;4.25;;;3.30;99.90;;;;;;4963132;28;20438;-71
2021/01/03 08:50:32;;;;;;;1.20;0.70;;;3.20;99.90;;;;;;4960808;28;20515;-70
2021/01/03 08:53:02;;;;;;;1.20;0.45;;;3.20;99.90;;;;;;4963270;28;20473;-70
2021/01/03 08:55:31;;;;;;;0.90;0.47;;;3.30;99.90;;;;;;4966906;28;20455;-72
2021/01/03 08:57:59;;;;;;;0.30;0.30;;;3.30;99.90;;;;;;4974746;28;20455;-71
2021/01/03 09:00:29;;;;;;;0.38;0.30;;;3.50;99.90;;;;;;4970930;28;20420;-70
2021/01/03 09:02:57;;;;;;;0.30;0.30;;;3.30;99.90;;;;;;4971647;28;20976;-71
2021/01/03 09:05:27;;;;;;;0.30;0.30;;;3.40;99.90;;;;;;4967223;28;20537;-71
2021/01/03 09:07:54;;;;;;;0.30;0.20;;;3.40;99.90;;;;;;4965139;28;20543;-71
2021/01/03 09:10:27;;;;;;;0.55;0.20;;;3.50;99.90;;;;;;4959439;28;20504;-71
2021/01/03 09:13:14;;;;;;;0.38;0.15;;;3.40;99.90;;;;;;4960119;28;20566;-70
2021/01/03 09:15:44;;;;;;;0.80;0.60;;;3.40;99.90;;;;;;4970249;28;20521;-72
2021/01/03 09:18:21;;;;;;;1.45;0.40;;;3.20;99.90;;;;;;4971728;28;20400;-71
2021/01/03 09:20:51;;;;;;;0.70;0.40;;;3.10;99.90;;;;;;4971904;28;21159;-71
2021/01/03 09:23:21;;;;;;;1.33;0.65;;;3.00;99.90;;;;;;4969489;28;20522;-71
2021/01/03 09:25:53;;;;;;;1.17;0.50;;;2.90;99.90;;;;;;4965262;28;20386;-70
2021/01/03 09:28:24;;;;;;;0.87;0.40;;;2.90;99.90;;;;;;4967943;28;20400;-71
2021/01/03 09:30:50;;;;;;;0.60;0.40;;;3.10;99.90;;;;;;4968653;28;20519;-71
2021/01/03 09:33:26;;;;;;;1.13;0.40;;;3.20;99.90;;;;;;4959052;28;20747;-71
2021/01/03 09:36:00;;;;;;;1.02;0.30;;;3.50;99.90;;;;;;4962625;28;20451;-71
2021/01/03 09:38:51;;;;;;;3.45;2.58;;;3.50;99.90;;;;;;4969973;28;20452;-71
2021/01/03 09:41:31;;;;;;;1.60;0.88;;;3.30;99.90;;;;;;4966342;28;20541;-71
2021/01/03 09:44:14;;;;;;;1.85;1.00;;;3.20;99.90;;;;;;4980098;28;20504;-71
2021/01/03 09:46:49;;;;;;;2.08;0.90;;;3.30;99.90;;;;;;4959882;28;20410;-71
2021/01/03 09:49:24;;;;;;;0.80;0.65;;;3.40;99.90;;;;;;4961941;28;20488;-71
2021/01/03 09:52:01;;;;;;;1.15;0.80;;;3.50;99.90;;;;;;4962286;28;20433;-71
2021/01/03 09:54:36;;;;;;;1.67;1.40;;;3.60;99.90;;;;;;4968491;28;20499;-71
2021/01/03 09:57:03;;;;;;;2.00;1.50;;;3.60;99.90;;;;;;4959708;28;20394;-71
2021/01/03 09:59:29;;;;;;;1.20;1.05;;;3.40;99.90;;;;;;4963087;28;20400;-72
2021/01/03 10:02:12;;;;;;;1.58;0.80;;;3.20;99.90;;;;;;4960124;28;20395;-71
2021/01/03 10:04:43;;;;;;;1.60;0.80;;;3.00;99.90;;;;;;4960949;28;20403;-72
2021/01/03 10:07:12;;;;;;;0.75;0.57;;;3.00;99.90;;;;;;4964559;28;20901;-71
2021/01/03 10:09:38;;;;;;;0.70;0.50;;;3.10;99.90;;;;;;4972150;28;20930;-71
2021/01/03 10:12:28;;;;;;;0.80;0.60;;;3.40;99.90;;;;;;4968861;28;20488;-71
2021/01/03 10:15:26;;;;;;;0.60;0.50;;;3.30;99.90;;;;;;4959791;28;20441;-71
2021/01/03 10:17:57;;;;;;;0.60;0.53;;;3.20;99.90;;;;;;4940003;28;20453;-71
2021/01/03 10:20:38;;;;;;;0.80;0.77;;;3.30;99.90;;;;;;4966298;28;20422;-71
2021/01/03 10:23:05;;;;;;;1.50;1.10;;;3.50;99.90;;;;;;4971510;28;20535;-74
2021/01/03 10:25:31;;;;;;;0.77;0.75;;;3.60;99.90;;;;;;4974948;28;20400;-71
2021/01/03 10:28:07;;;;;;;1.63;1.00;;;3.50;99.90;;;;;;4972277;28;20411;-72
2021/01/03 10:30:33;;;;;;;0.80;0.60;;;3.60;99.90;;;;;;4971597;28;20439;-72
2021/01/03 10:32:59;;;;;;;1.10;0.80;;;3.60;99.90;;;;;;4965684;28;20914;-72
2021/01/03 10:35:26;;;;;;;0.98;0.80;;;3.70;99.90;;;;;;4968671;28;20402;-72
2021/01/03 10:37:52;;;;;;;1.63;1.30;;;3.80;99.90;;;;;;4969467;28;20487;-72
2021/01/03 10:40:19;;;;;;;2.05;1.40;;;3.90;99.90;;;;;;4969821;28;20503;-72
2021/01/03 10:42:45;;;;;;;1.80;1.10;;;3.80;99.90;;;;;;4966721;28;20897;-71
2021/01/03 10:45:13;;;;;;;1.60;1.23;;;3.80;99.90;;;;;;4968912;28;20492;-72
2021/01/03 10:47:39;;;;;;;1.67;1.27;;;3.70;99.90;;;;;;4969284;28;20921;-72
2021/01/03 10:50:07;;;;;;;2.20;1.50;;;3.80;99.90;;;;;;4969763;28;20432;-74
2021/01/03 10:52:33;;;;;;;1.70;1.55;;;3.80;99.90;;;;;;4969078;28;20447;-72
2021/01/03 10:54:58;;;;;;;3.27;2.17;;;3.80;99.90;;;;;;4967963;28;20392;-74
2021/01/03 10:57:24;;;;;;;2.25;1.98;;;3.80;99.90;;;;;;4969712;28;20459;-74
2021/01/03 10:59:51;;;;;;;2.10;1.85;;;3.90;99.90;;;;;;4969062;28;20401;-74
2021/01/03 11:02:18;;;;;;;2.30;2.10;;;3.90;99.90;;;;;;4967791;28;20424;-74
2021/01/03 11:04:44;;;;;;;2.83;2.30;;;3.90;99.90;;;;;;4968292;28;20404;-74
2021/01/03 11:07:10;;;;;;;5.75;5.15;;;4.00;99.90;;;;;;4964493;28;20441;-74
2021/01/03 11:09:36;;;;;;;6.75;5.88;;;4.00;99.90;;;;;;4969366;28;21158;-75
2021/01/03 11:12:04;;;;;;;4.25;3.85;;;3.90;99.90;;;;;;4967749;28;20427;-75
2021/01/03 11:14:30;;;;;;;3.45;2.60;;;4.10;99.90;;;;;;4968593;28;20450;-74
2021/01/03 11:16:56;;;;;;;2.53;2.33;;;4.30;99.90;;;;;;4968433;28;20412;-74
2021/01/03 11:19:26;;;;;;;2.77;2.40;;;4.40;99.90;;;;;;4967808;28;20411;-75
2021/01/03 11:21:56;;;;;;;3.35;2.72;;;4.30;99.90;;;;;;4968379;28;20413;-72
2021/01/03 11:24:22;;;;;;;3.78;2.95;;;4.30;99.90;;;;;;4969865;28;20456;-72
2021/01/03 11:26:48;;;;;;;2.70;2.30;;;4.30;99.90;;;;;;4969965;28;21817;-72
2021/01/03 11:29:17;;;;;;;3.33;2.80;;;4.30;99.90;;;;;;4970619;28;20413;-72
2021/01/03 11:31:44;;;;;;;3.58;2.60;;;4.20;99.90;;;;;;4967331;28;20474;-71
2021/01/03 11:34:14;;;;;;;3.35;2.38;;;4.30;99.90;;;;;;4967319;28;20454;-72
2021/01/03 11:36:46;;;;;;;3.88;3.10;;;4.30;99.90;;;;;;4976355;28;20435;-71
2021/01/03 11:39:13;;;;;;;2.80;2.28;;;4.30;99.90;;;;;;4967784;28;20449;-72
2021/01/03 11:41:39;;;;;;;3.37;2.60;;;4.30;99.90;;;;;;4967278;28;20411;-71
2021/01/03 11:44:06;;;;;;;2.83;2.38;;;4.20;99.90;;;;;;4966314;28;20802;-71
2021/01/03 11:46:32;;;;;;;2.95;2.40;;;4.10;99.90;;;;;;4966719;28;20408;-72
2021/01/03 11:48:58;;;;;;;3.95;2.60;;;4.10;99.90;;;;;;4968543;28;20427;-72
2021/01/03 11:51:25;;;;;;;4.45;3.03;;;4.20;99.90;;;;;;4966477;28;20413;-72
2021/01/03 11:53:52;;;;;;;4.53;3.60;;;4.10;99.90;;;;;;4968097;28;20982;-72
2021/01/03 11:56:19;;;;;;;3.40;3.10;;;4.00;99.90;;;;;;4967366;28;20914;-72
2021/01/03 11:58:45;;;;;;;4.00;3.40;;;4.10;99.90;;;;;;4966779;28;20475;-72
2021/01/03 12:01:11;;;;;;;3.40;3.00;;;4.00;99.90;;;;;;4968375;28;20910;-72
2021/01/03 12:03:37;;;;;;;3.93;3.10;;;4.10;99.90;;;;;;4967774;28;20404;-73
2021/01/03 12:06:03;;;;;;;3.75;2.90;;;4.30;99.90;;;;;;4965066;28;20413;-72
2021/01/03 12:08:29;;;;;;;3.80;3.00;;;4.30;99.90;;;;;;4965089;28;20463;-73
2021/01/03 12:10:55;;;;;;;4.38;3.35;;;4.20;99.90;;;;;;4969881;28;20404;-72
2021/01/03 12:13:21;;;;;;;4.22;3.72;;;4.10;99.90;;;;;;4970477;28;20792;-72
2021/01/03 12:15:47;;;;;;;4.93;4.38;;;4.00;99.90;;;;;;4970643;28;20490;-72
2021/01/03 12:18:13;;;;;;;5.73;5.13;;;3.90;99.90;;;;;;4963264;28;20450;-72
2021/01/03 12:20:40;;;;;;;5.28;4.32;;;3.90;99.90;;;;;;4961097;28;20428;-72
2021/01/03 12:23:06;;;;;;;5.63;4.40;;;4.00;99.90;;;;;;4955295;28;20400;-72
2021/01/03 12:25:32;;;;;;;6.05;4.55;;;4.10;99.90;;;;;;4959721;28;20401;-73
2021/01/03 12:27:59;;;;;;;5.35;4.50;;;4.10;99.90;;;;;;4963286;28;20393;-72
2021/01/03 12:30:25;;;;;;;4.85;4.35;;;4.10;99.90;;;;;;4960957;28;20432;-72
2021/01/03 12:32:52;;;;;;;6.90;5.78;;;4.10;99.90;;;;;;4958222;28;20448;-73
2021/01/03 12:35:18;;;;;;;8.20;6.40;;;4.10;99.90;;;;;;4958390;28;20400;-72
2021/01/03 12:37:44;;;;;;;8.52;6.20;;;4.10;99.90;;;;;;4959133;28;20496;-72
2021/01/03 12:40:12;;;;;;;8.43;6.60;;;4.10;99.90;;;;;;4967224;28;20613;-73
2021/01/03 12:42:38;;;;;;;9.03;7.87;;;4.10;99.90;;;;;;4956378;28;20817;-72
2021/01/03 12:45:07;;;;;;;12.07;8.35;;;4.10;99.90;;;;;;4956981;28;20417;-72
2021/01/03 12:47:33;;;;;;;9.38;7.45;;;4.20;99.90;;;;;;4965146;28;20415;-72
2021/01/03 12:49:59;;;;;;;10.73;7.80;;;4.20;99.90;;;;;;4961733;28;20905;-72
2021/01/03 12:52:28;;;;;;;9.52;7.63;;;4.30;99.90;;;;;;4961024;28;20454;-73
2021/01/03 12:54:54;;;;;;;11.85;8.45;;;4.30;99.90;;;;;;4964272;28;20944;-73
2021/01/03 12:57:19;;;;;;;13.25;9.57;;;4.30;99.90;;;;;;4957720;28;20409;-73
2021/01/03 12:59:45;;;;;;;10.60;7.43;;;4.30;99.90;;;;;;4964407;28;20402;-73